sensor_id;sensor_type;location;lat;lon;timestamp;P1;durP1;ratioP1;P2;durP2;ratioP2
76863;SDS011;65834;52.364;9.754;2023-12-04T00:02:23;21.02;;;8.27;;
76863;SDS011;65834;52.364;9.754;2023-12-04T00:04:52;19.93;;;8.00;;
76863;SDS011;65834;52.364;9.754;2023-12-04T00:07:23;21.67;;;8.57;;
76863;SDS011;65834;52.364;9.754;2023-12-04T00:09:53;22.90;;;8.80;;
76863;SDS011;65834;52.364;9.754;2023-12-04T00:12:23;18.53;;;8.27;;
76863;SDS011;65834;52.364;9.754;2023-12-04T00:14:56;20.17;;;8.97;;
76863;SDS011;65834;52.364;9.754;2023-12-04T00:17:25;19.63;;;9.07;;
76863;SDS011;65834;52.364;9.754;2023-12-04T00:19:56;21.97;;;8.20;;
76863;SDS011;65834;52.364;9.754;2023-12-04T00:22:26;20.23;;;9.30;;
76863;SDS011;65834;52.364;9.754;2023-12-04T00:24:56;20.27;;;9.27;;
76863;SDS011;65834;52.364;9.754;2023-12-04T00:27:26;18.77;;;8.00;;
76863;SDS011;65834;52.364;9.754;2023-12-04T00:29:58;20.40;;;8.57;;
76863;SDS011;65834;52.364;9.754;2023-12-04T00:32:30;18.77;;;9.33;;
76863;SDS011;65834;52.364;9.754;2023-12-04T00:35:00;19.17;;;8.03;;
76863;SDS011;65834;52.364;9.754;2023-12-04T00:37:30;20.80;;;9.20;;
76863;SDS011;65834;52.364;9.754;2023-12-04T00:40:04;20.70;;;8.13;;
76863;SDS011;65834;52.364;9.754;2023-12-04T00:42:35;19.80;;;8.97;;
76863;SDS011;65834;52.364;9.754;2023-12-04T00:45:08;22.63;;;9.37;;
76863;SDS011;65834;52.364;9.754;2023-12-04T00:47:38;20.23;;;8.43;;
76863;SDS011;65834;52.364;9.754;2023-12-04T00:50:08;19.57;;;8.67;;
76863;SDS011;65834;52.364;9.754;2023-12-04T00:52:40;18.95;;;8.23;;
76863;SDS011;65834;52.364;9.754;2023-12-04T00:55:09;20.73;;;9.10;;
76863;SDS011;65834;52.364;9.754;2023-12-04T00:57:39;22.23;;;8.50;;
76863;SDS011;65834;52.364;9.754;2023-12-04T01:00:12;20.00;;;8.40;;
76863;SDS011;65834;52.364;9.754;2023-12-04T01:02:42;22.00;;;8.83;;
76863;SDS011;65834;52.364;9.754;2023-12-04T01:05:12;19.33;;;8.40;;
76863;SDS011;65834;52.364;9.754;2023-12-04T01:07:42;20.70;;;9.23;;
76863;SDS011;65834;52.364;9.754;2023-12-04T01:10:11;22.97;;;9.43;;
76863;SDS011;65834;52.364;9.754;2023-12-04T01:12:41;18.07;;;8.13;;
76863;SDS011;65834;52.364;9.754;2023-12-04T01:15:13;19.97;;;9.17;;
76863;SDS011;65834;52.364;9.754;2023-12-04T01:17:43;21.02;;;9.10;;
76863;SDS011;65834;52.364;9.754;2023-12-04T01:20:13;18.40;;;7.80;;
76863;SDS011;65834;52.364;9.754;2023-12-04T01:22:43;22.43;;;8.10;;
76863;SDS011;65834;52.364;9.754;2023-12-04T01:25:12;18.63;;;7.53;;
76863;SDS011;65834;52.364;9.754;2023-12-04T01:27:42;19.50;;;7.97;;
76863;SDS011;65834;52.364;9.754;2023-12-04T01:30:14;15.60;;;7.07;;
76863;SDS011;65834;52.364;9.754;2023-12-04T01:32:44;21.15;;;8.40;;
76863;SDS011;65834;52.364;9.754;2023-12-04T01:35:14;19.53;;;8.03;;
76863;SDS011;65834;52.364;9.754;2023-12-04T01:37:44;18.70;;;7.20;;
76863;SDS011;65834;52.364;9.754;2023-12-04T01:40:13;19.73;;;7.63;;
76863;SDS011;65834;52.364;9.754;2023-12-04T01:42:43;17.00;;;6.83;;
76863;SDS011;65834;52.364;9.754;2023-12-04T01:45:15;16.37;;;6.73;;
76863;SDS011;65834;52.364;9.754;2023-12-04T01:50:15;17.60;;;7.27;;
76863;SDS011;65834;52.364;9.754;2023-12-04T01:52:45;16.27;;;6.60;;
76863;SDS011;65834;52.364;9.754;2023-12-04T01:55:16;18.87;;;7.37;;
76863;SDS011;65834;52.364;9.754;2023-12-04T01:57:45;18.70;;;7.47;;
76863;SDS011;65834;52.364;9.754;2023-12-04T02:00:18;17.50;;;6.83;;
76863;SDS011;65834;52.364;9.754;2023-12-04T02:02:48;20.25;;;7.30;;
76863;SDS011;65834;52.364;9.754;2023-12-04T02:05:18;20.13;;;7.73;;
76863;SDS011;65834;52.364;9.754;2023-12-04T02:07:48;16.20;;;6.80;;
76863;SDS011;65834;52.364;9.754;2023-12-04T02:10:18;20.27;;;7.97;;
76863;SDS011;65834;52.364;9.754;2023-12-04T02:12:48;18.43;;;7.20;;
76863;SDS011;65834;52.364;9.754;2023-12-04T02:15:21;17.03;;;7.30;;
76863;SDS011;65834;52.364;9.754;2023-12-04T02:17:51;20.58;;;7.88;;
76863;SDS011;65834;52.364;9.754;2023-12-04T02:20:20;17.87;;;7.07;;
76863;SDS011;65834;52.364;9.754;2023-12-04T02:23:00;17.10;;;6.50;;
76863;SDS011;65834;52.364;9.754;2023-12-04T02:25:32;16.63;;;7.13;;
76863;SDS011;65834;52.364;9.754;2023-12-04T02:28:05;17.17;;;7.07;;
76863;SDS011;65834;52.364;9.754;2023-12-04T02:30:37;16.70;;;6.83;;
76863;SDS011;65834;52.364;9.754;2023-12-04T02:33:07;15.57;;;6.23;;
76863;SDS011;65834;52.364;9.754;2023-12-04T02:35:38;15.73;;;6.57;;
76863;SDS011;65834;52.364;9.754;2023-12-04T02:38:09;19.00;;;6.23;;
76863;SDS011;65834;52.364;9.754;2023-12-04T02:40:43;17.67;;;6.93;;
76863;SDS011;65834;52.364;9.754;2023-12-04T02:43:13;17.95;;;6.57;;
76863;SDS011;65834;52.364;9.754;2023-12-04T02:45:42;18.20;;;7.60;;
76863;SDS011;65834;52.364;9.754;2023-12-04T02:48:12;17.00;;;6.83;;
76863;SDS011;65834;52.364;9.754;2023-12-04T02:50:42;16.53;;;6.93;;
76863;SDS011;65834;52.364;9.754;2023-12-04T02:53:11;17.53;;;6.90;;
76863;SDS011;65834;52.364;9.754;2023-12-04T02:55:43;18.93;;;7.27;;
76863;SDS011;65834;52.364;9.754;2023-12-04T02:58:13;16.85;;;6.22;;
76863;SDS011;65834;52.364;9.754;2023-12-04T03:00:42;16.67;;;6.83;;
76863;SDS011;65834;52.364;9.754;2023-12-04T03:03:12;19.80;;;7.37;;
76863;SDS011;65834;52.364;9.754;2023-12-04T03:05:42;19.47;;;6.57;;
76863;SDS011;65834;52.364;9.754;2023-12-04T03:08:11;17.00;;;7.23;;
76863;SDS011;65834;52.364;9.754;2023-12-04T03:10:44;19.17;;;7.00;;
76863;SDS011;65834;52.364;9.754;2023-12-04T03:13:13;16.92;;;6.90;;
76863;SDS011;65834;52.364;9.754;2023-12-04T03:15:43;17.10;;;6.87;;
76863;SDS011;65834;52.364;9.754;2023-12-04T03:18:12;17.30;;;6.03;;
76863;SDS011;65834;52.364;9.754;2023-12-04T03:20:42;16.47;;;6.37;;
76863;SDS011;65834;52.364;9.754;2023-12-04T03:23:11;16.70;;;6.20;;
76863;SDS011;65834;52.364;9.754;2023-12-04T03:25:44;16.37;;;7.17;;
76863;SDS011;65834;52.364;9.754;2023-12-04T03:28:13;15.23;;;6.25;;
76863;SDS011;65834;52.364;9.754;2023-12-04T03:30:43;17.43;;;6.87;;
76863;SDS011;65834;52.364;9.754;2023-12-04T03:33:13;16.93;;;6.33;;
76863;SDS011;65834;52.364;9.754;2023-12-04T03:35:42;18.07;;;6.60;;
76863;SDS011;65834;52.364;9.754;2023-12-04T03:38:12;18.37;;;6.43;;
76863;SDS011;65834;52.364;9.754;2023-12-04T03:40:44;17.80;;;7.77;;
76863;SDS011;65834;52.364;9.754;2023-12-04T03:43:14;18.73;;;6.88;;
76863;SDS011;65834;52.364;9.754;2023-12-04T03:45:44;18.77;;;8.17;;
76863;SDS011;65834;52.364;9.754;2023-12-04T03:48:13;16.23;;;7.03;;
76863;SDS011;65834;52.364;9.754;2023-12-04T03:50:43;17.07;;;7.27;;
76863;SDS011;65834;52.364;9.754;2023-12-04T03:53:13;18.20;;;7.87;;
76863;SDS011;65834;52.364;9.754;2023-12-04T03:55:45;16.00;;;6.50;;
76863;SDS011;65834;52.364;9.754;2023-12-04T03:58:15;16.00;;;6.43;;
76863;SDS011;65834;52.364;9.754;2023-12-04T04:00:44;16.27;;;6.70;;
76863;SDS011;65834;52.364;9.754;2023-12-04T04:03:14;18.20;;;7.60;;
76863;SDS011;65834;52.364;9.754;2023-12-04T04:05:43;17.53;;;7.43;;
76863;SDS011;65834;52.364;9.754;2023-12-04T04:08:13;19.07;;;7.07;;
76863;SDS011;65834;52.364;9.754;2023-12-04T04:10:45;18.30;;;7.47;;
76863;SDS011;65834;52.364;9.754;2023-12-04T04:13:15;18.42;;;7.60;;
76863;SDS011;65834;52.364;9.754;2023-12-04T04:15:44;17.23;;;6.47;;
76863;SDS011;65834;52.364;9.754;2023-12-04T04:18:14;18.17;;;7.17;;
76863;SDS011;65834;52.364;9.754;2023-12-04T04:20:44;17.27;;;7.50;;
76863;SDS011;65834;52.364;9.754;2023-12-04T04:23:13;17.80;;;7.10;;
76863;SDS011;65834;52.364;9.754;2023-12-04T04:25:45;18.20;;;6.97;;
76863;SDS011;65834;52.364;9.754;2023-12-04T04:28:15;19.45;;;7.70;;
76863;SDS011;65834;52.364;9.754;2023-12-04T04:30:44;19.10;;;7.00;;
76863;SDS011;65834;52.364;9.754;2023-12-04T04:33:14;16.13;;;6.50;;
76863;SDS011;65834;52.364;9.754;2023-12-04T04:35:44;15.00;;;6.63;;
76863;SDS011;65834;52.364;9.754;2023-12-04T04:38:14;16.90;;;6.50;;
76863;SDS011;65834;52.364;9.754;2023-12-04T04:40:46;16.77;;;6.73;;
76863;SDS011;65834;52.364;9.754;2023-12-04T04:43:15;16.08;;;6.80;;
76863;SDS011;65834;52.364;9.754;2023-12-04T04:45:48;17.15;;;6.68;;
76863;SDS011;65834;52.364;9.754;2023-12-04T04:48:17;16.63;;;6.43;;
76863;SDS011;65834;52.364;9.754;2023-12-04T04:50:47;16.20;;;6.37;;
76863;SDS011;65834;52.364;9.754;2023-12-04T04:53:16;16.27;;;6.30;;
76863;SDS011;65834;52.364;9.754;2023-12-04T04:55:48;16.27;;;6.40;;
76863;SDS011;65834;52.364;9.754;2023-12-04T04:58:21;16.87;;;6.40;;
76863;SDS011;65834;52.364;9.754;2023-12-04T05:00:50;16.83;;;6.50;;
76863;SDS011;65834;52.364;9.754;2023-12-04T05:03:20;16.27;;;6.63;;
76863;SDS011;65834;52.364;9.754;2023-12-04T05:05:50;17.27;;;7.00;;
76863;SDS011;65834;52.364;9.754;2023-12-04T05:08:20;17.23;;;6.37;;
76863;SDS011;65834;52.364;9.754;2023-12-04T05:10:52;14.67;;;6.40;;
76863;SDS011;65834;52.364;9.754;2023-12-04T05:13:22;16.45;;;5.85;;
76863;SDS011;65834;52.364;9.754;2023-12-04T05:15:51;15.83;;;5.90;;
76863;SDS011;65834;52.364;9.754;2023-12-04T05:18:21;17.40;;;7.30;;
76863;SDS011;65834;52.364;9.754;2023-12-04T05:20:50;15.33;;;6.20;;
76863;SDS011;65834;52.364;9.754;2023-12-04T05:23:20;18.40;;;6.43;;
76863;SDS011;65834;52.364;9.754;2023-12-04T05:25:53;15.83;;;6.60;;
76863;SDS011;65834;52.364;9.754;2023-12-04T05:28:22;16.30;;;6.22;;
76863;SDS011;65834;52.364;9.754;2023-12-04T05:30:52;16.93;;;6.10;;
76863;SDS011;65834;52.364;9.754;2023-12-04T05:33:21;16.47;;;6.87;;
76863;SDS011;65834;52.364;9.754;2023-12-04T05:35:52;17.70;;;7.00;;
76863;SDS011;65834;52.364;9.754;2023-12-04T05:38:22;16.70;;;6.63;;
76863;SDS011;65834;52.364;9.754;2023-12-04T05:40:54;16.10;;;5.93;;
76863;SDS011;65834;52.364;9.754;2023-12-04T05:43:24;14.88;;;6.55;;
76863;SDS011;65834;52.364;9.754;2023-12-04T05:45:53;15.27;;;5.80;;
76863;SDS011;65834;52.364;9.754;2023-12-04T05:48:23;15.63;;;6.20;;
76863;SDS011;65834;52.364;9.754;2023-12-04T05:50:52;15.17;;;6.40;;
76863;SDS011;65834;52.364;9.754;2023-12-04T05:53:22;16.10;;;6.17;;
76863;SDS011;65834;52.364;9.754;2023-12-04T05:55:51;18.10;;;6.97;;
76863;SDS011;65834;52.364;9.754;2023-12-04T05:58:24;15.43;;;6.00;;
76863;SDS011;65834;52.364;9.754;2023-12-04T06:00:53;16.00;;;6.40;;
76863;SDS011;65834;52.364;9.754;2023-12-04T06:03:23;17.17;;;6.20;;
76863;SDS011;65834;52.364;9.754;2023-12-04T06:05:52;16.00;;;6.30;;
76863;SDS011;65834;52.364;9.754;2023-12-04T06:08:29;15.77;;;5.83;;
76863;SDS011;65834;52.364;9.754;2023-12-04T06:11:02;16.10;;;6.50;;
76863;SDS011;65834;52.364;9.754;2023-12-04T06:13:32;18.40;;;6.22;;
76863;SDS011;65834;52.364;9.754;2023-12-04T06:16:01;17.23;;;6.27;;
76863;SDS011;65834;52.364;9.754;2023-12-04T06:18:32;18.30;;;6.20;;
76863;SDS011;65834;52.364;9.754;2023-12-04T06:21:02;15.37;;;5.43;;
76863;SDS011;65834;52.364;9.754;2023-12-04T06:23:32;16.97;;;6.57;;
76863;SDS011;65834;52.364;9.754;2023-12-04T06:26:06;15.80;;;5.87;;
76863;SDS011;65834;52.364;9.754;2023-12-04T06:28:36;17.00;;;6.63;;
76863;SDS011;65834;52.364;9.754;2023-12-04T06:31:07;16.20;;;6.00;;
76863;SDS011;65834;52.364;9.754;2023-12-04T06:33:38;17.60;;;6.80;;
76863;SDS011;65834;52.364;9.754;2023-12-04T06:36:09;15.57;;;6.43;;
76863;SDS011;65834;52.364;9.754;2023-12-04T06:38:42;17.10;;;6.97;;
76863;SDS011;65834;52.364;9.754;2023-12-04T06:43:48;14.75;;;5.82;;
76863;SDS011;65834;52.364;9.754;2023-12-04T06:46:19;17.90;;;7.70;;
76863;SDS011;65834;52.364;9.754;2023-12-04T06:48:50;16.53;;;6.77;;
76863;SDS011;65834;52.364;9.754;2023-12-04T06:51:23;17.20;;;6.57;;
76863;SDS011;65834;52.364;9.754;2023-12-04T06:53:53;16.77;;;7.33;;
76863;SDS011;65834;52.364;9.754;2023-12-04T06:56:25;16.57;;;6.37;;
76863;SDS011;65834;52.364;9.754;2023-12-04T07:01:25;15.87;;;6.63;;
76863;SDS011;65834;52.364;9.754;2023-12-04T07:03:54;19.23;;;7.30;;
76863;SDS011;65834;52.364;9.754;2023-12-04T07:06:24;16.43;;;6.80;;
76863;SDS011;65834;52.364;9.754;2023-12-04T07:08:54;18.17;;;7.57;;
76863;SDS011;65834;52.364;9.754;2023-12-04T07:11:26;15.80;;;6.97;;
76863;SDS011;65834;52.364;9.754;2023-12-04T07:13:56;16.20;;;6.60;;
76863;SDS011;65834;52.364;9.754;2023-12-04T07:16:25;17.90;;;7.77;;
76863;SDS011;65834;52.364;9.754;2023-12-04T07:18:55;15.93;;;6.90;;
76863;SDS011;65834;52.364;9.754;2023-12-04T07:21:24;17.70;;;7.07;;
76863;SDS011;65834;52.364;9.754;2023-12-04T07:23:54;18.83;;;7.30;;
76863;SDS011;65834;52.364;9.754;2023-12-04T07:26:26;18.87;;;6.77;;
76863;SDS011;65834;52.364;9.754;2023-12-04T07:28:55;18.35;;;6.88;;
76863;SDS011;65834;52.364;9.754;2023-12-04T07:31:25;17.27;;;7.03;;
76863;SDS011;65834;52.364;9.754;2023-12-04T07:33:55;17.80;;;7.40;;
76863;SDS011;65834;52.364;9.754;2023-12-04T07:36:27;20.00;;;8.35;;
76863;SDS011;65834;52.364;9.754;2023-12-04T07:38:57;16.77;;;7.90;;
76863;SDS011;65834;52.364;9.754;2023-12-04T07:41:31;16.27;;;7.27;;
76863;SDS011;65834;52.364;9.754;2023-12-04T07:44:00;15.63;;;7.18;;
76863;SDS011;65834;52.364;9.754;2023-12-04T07:46:30;16.03;;;7.60;;
76863;SDS011;65834;52.364;9.754;2023-12-04T07:48:59;17.37;;;7.00;;
76863;SDS011;65834;52.364;9.754;2023-12-04T07:51:30;17.87;;;8.03;;
76863;SDS011;65834;52.364;9.754;2023-12-04T07:54:00;16.63;;;6.80;;
76863;SDS011;65834;52.364;9.754;2023-12-04T07:56:35;16.33;;;7.88;;
76863;SDS011;65834;52.364;9.754;2023-12-04T07:59:04;17.63;;;6.97;;
76863;SDS011;65834;52.364;9.754;2023-12-04T08:01:34;15.50;;;6.20;;
76863;SDS011;65834;52.364;9.754;2023-12-04T08:04:04;18.43;;;7.60;;
76863;SDS011;65834;52.364;9.754;2023-12-04T08:06:33;16.83;;;7.47;;
76863;SDS011;65834;52.364;9.754;2023-12-04T08:09:03;17.93;;;7.50;;
76863;SDS011;65834;52.364;9.754;2023-12-04T08:11:39;17.07;;;7.90;;
76863;SDS011;65834;52.364;9.754;2023-12-04T08:14:08;16.35;;;6.60;;
76863;SDS011;65834;52.364;9.754;2023-12-04T08:16:38;17.53;;;7.83;;
76863;SDS011;65834;52.364;9.754;2023-12-04T08:19:08;15.30;;;7.47;;
76863;SDS011;65834;52.364;9.754;2023-12-04T08:21:38;16.20;;;6.90;;
76863;SDS011;65834;52.364;9.754;2023-12-04T08:24:07;16.87;;;7.70;;
76863;SDS011;65834;52.364;9.754;2023-12-04T08:26:40;15.80;;;6.57;;
76863;SDS011;65834;52.364;9.754;2023-12-04T08:29:09;15.68;;;6.93;;
76863;SDS011;65834;52.364;9.754;2023-12-04T08:31:39;15.40;;;6.07;;
76863;SDS011;65834;52.364;9.754;2023-12-04T08:34:08;16.73;;;7.30;;
76863;SDS011;65834;52.364;9.754;2023-12-04T08:36:38;15.30;;;6.57;;
76863;SDS011;65834;52.364;9.754;2023-12-04T08:39:12;16.50;;;6.73;;
76863;SDS011;65834;52.364;9.754;2023-12-04T08:41:46;16.17;;;6.83;;
76863;SDS011;65834;52.364;9.754;2023-12-04T08:44:27;17.47;;;7.47;;
76863;SDS011;65834;52.364;9.754;2023-12-04T08:46:56;16.27;;;6.40;;
76863;SDS011;65834;52.364;9.754;2023-12-04T08:49:28;15.73;;;6.47;;
76863;SDS011;65834;52.364;9.754;2023-12-04T08:52:08;17.07;;;5.93;;
76863;SDS011;65834;52.364;9.754;2023-12-04T08:54:38;18.17;;;7.33;;
76863;SDS011;65834;52.364;9.754;2023-12-04T08:57:12;15.87;;;6.77;;
76863;SDS011;65834;52.364;9.754;2023-12-04T08:59:41;17.02;;;6.50;;
76863;SDS011;65834;52.364;9.754;2023-12-04T09:02:11;17.43;;;7.20;;
76863;SDS011;65834;52.364;9.754;2023-12-04T09:04:41;17.57;;;7.80;;
76863;SDS011;65834;52.364;9.754;2023-12-04T09:07:10;16.77;;;6.43;;
76863;SDS011;65834;52.364;9.754;2023-12-04T09:09:44;17.73;;;6.60;;
76863;SDS011;65834;52.364;9.754;2023-12-04T09:12:16;16.43;;;6.90;;
76863;SDS011;65834;52.364;9.754;2023-12-04T09:14:46;16.05;;;6.68;;
76863;SDS011;65834;52.364;9.754;2023-12-04T09:17:15;16.33;;;6.47;;
76863;SDS011;65834;52.364;9.754;2023-12-04T09:22:18;13.10;;;5.33;;
76863;SDS011;65834;52.364;9.754;2023-12-04T09:24:55;16.07;;;6.47;;
76863;SDS011;65834;52.364;9.754;2023-12-04T09:27:27;15.87;;;6.23;;
76863;SDS011;65834;52.364;9.754;2023-12-04T09:29:57;15.25;;;5.80;;
76863;SDS011;65834;52.364;9.754;2023-12-04T09:32:26;15.60;;;6.30;;
76863;SDS011;65834;52.364;9.754;2023-12-04T09:34:56;17.27;;;6.70;;
76863;SDS011;65834;52.364;9.754;2023-12-04T09:37:26;15.70;;;6.23;;
76863;SDS011;65834;52.364;9.754;2023-12-04T09:39:56;15.97;;;6.60;;
76863;SDS011;65834;52.364;9.754;2023-12-04T09:42:30;16.77;;;6.47;;
76863;SDS011;65834;52.364;9.754;2023-12-04T09:45:01;17.13;;;6.57;;
76863;SDS011;65834;52.364;9.754;2023-12-04T09:47:30;16.30;;;7.10;;
76863;SDS011;65834;52.364;9.754;2023-12-04T09:50:03;15.05;;;6.85;;
76863;SDS011;65834;52.364;9.754;2023-12-04T09:52:35;16.83;;;7.25;;
76863;SDS011;65834;52.364;9.754;2023-12-04T09:55:05;17.90;;;7.33;;
76863;SDS011;65834;52.364;9.754;2023-12-04T09:57:38;16.53;;;6.93;;
76863;SDS011;65834;52.364;9.754;2023-12-04T10:00:08;15.40;;;5.97;;
76863;SDS011;65834;52.364;9.754;2023-12-04T10:02:40;17.25;;;7.15;;
76863;SDS011;65834;52.364;9.754;2023-12-04T10:05:11;15.53;;;6.17;;
76863;SDS011;65834;52.364;9.754;2023-12-04T10:07:41;14.10;;;6.13;;
76863;SDS011;65834;52.364;9.754;2023-12-04T10:10:10;15.10;;;6.27;;
76863;SDS011;65834;52.364;9.754;2023-12-04T10:12:43;14.20;;;5.90;;
76863;SDS011;65834;52.364;9.754;2023-12-04T10:15:13;17.00;;;5.60;;
76863;SDS011;65834;52.364;9.754;2023-12-04T10:17:42;15.10;;;6.20;;
76863;SDS011;65834;52.364;9.754;2023-12-04T10:20:13;16.90;;;7.07;;
76863;SDS011;65834;52.364;9.754;2023-12-04T10:22:54;17.70;;;7.90;;
76863;SDS011;65834;52.364;9.754;2023-12-04T10:25:25;13.47;;;6.13;;
76863;SDS011;65834;52.364;9.754;2023-12-04T10:28:06;14.00;;;5.87;;
76863;SDS011;65834;52.364;9.754;2023-12-04T10:30:38;14.43;;;5.45;;
76863;SDS011;65834;52.364;9.754;2023-12-04T10:33:08;14.87;;;5.70;;
76863;SDS011;65834;52.364;9.754;2023-12-04T10:35:39;15.43;;;6.23;;
76863;SDS011;65834;52.364;9.754;2023-12-04T10:38:10;14.80;;;5.47;;
76863;SDS011;65834;52.364;9.754;2023-12-04T10:40:40;14.53;;;5.97;;
76863;SDS011;65834;52.364;9.754;2023-12-04T10:43:14;17.10;;;6.93;;
76863;SDS011;65834;52.364;9.754;2023-12-04T10:45:45;15.87;;;6.90;;
76863;SDS011;65834;52.364;9.754;2023-12-04T10:48:16;17.23;;;7.00;;
76863;SDS011;65834;52.364;9.754;2023-12-04T10:50:48;15.37;;;5.90;;
76863;SDS011;65834;52.364;9.754;2023-12-04T10:53:19;15.33;;;6.57;;
76863;SDS011;65834;52.364;9.754;2023-12-04T10:55:49;14.57;;;5.20;;
76863;SDS011;65834;52.364;9.754;2023-12-04T10:58:25;15.70;;;5.83;;
76863;SDS011;65834;52.364;9.754;2023-12-04T11:00:55;15.17;;;5.67;;
76863;SDS011;65834;52.364;9.754;2023-12-04T11:03:31;15.27;;;6.13;;
76863;SDS011;65834;52.364;9.754;2023-12-04T11:06:05;15.33;;;5.57;;
76863;SDS011;65834;52.364;9.754;2023-12-04T11:08:39;15.80;;;6.43;;
76863;SDS011;65834;52.364;9.754;2023-12-04T11:11:12;15.43;;;5.80;;
76863;SDS011;65834;52.364;9.754;2023-12-04T11:13:48;14.33;;;5.63;;
76863;SDS011;65834;52.364;9.754;2023-12-04T11:16:20;13.37;;;5.40;;
76863;SDS011;65834;52.364;9.754;2023-12-04T11:18:59;15.03;;;6.07;;
76863;SDS011;65834;52.364;9.754;2023-12-04T11:21:33;15.17;;;5.70;;
76863;SDS011;65834;52.364;9.754;2023-12-04T11:24:05;14.77;;;6.00;;
76863;SDS011;65834;52.364;9.754;2023-12-04T11:26:35;15.33;;;5.60;;
76863;SDS011;65834;52.364;9.754;2023-12-04T11:29:09;15.67;;;5.20;;
76863;SDS011;65834;52.364;9.754;2023-12-04T11:31:40;14.93;;;5.83;;
76863;SDS011;65834;52.364;9.754;2023-12-04T11:34:12;14.83;;;5.67;;
76863;SDS011;65834;52.364;9.754;2023-12-04T11:36:42;12.20;;;4.93;;
76863;SDS011;65834;52.364;9.754;2023-12-04T11:39:14;12.50;;;5.53;;
76863;SDS011;65834;52.364;9.754;2023-12-04T11:41:44;14.03;;;5.20;;
76863;SDS011;65834;52.364;9.754;2023-12-04T11:44:17;14.17;;;5.37;;
76863;SDS011;65834;52.364;9.754;2023-12-04T11:47:02;13.07;;;5.20;;
76863;SDS011;65834;52.364;9.754;2023-12-04T11:49:33;13.93;;;4.70;;
76863;SDS011;65834;52.364;9.754;2023-12-04T11:52:03;13.00;;;5.43;;
76863;SDS011;65834;52.364;9.754;2023-12-04T11:57:27;13.40;;;4.93;;
76863;SDS011;65834;52.364;9.754;2023-12-04T12:00:11;14.10;;;5.97;;
76863;SDS011;65834;52.364;9.754;2023-12-04T12:02:46;14.90;;;4.63;;
76863;SDS011;65834;52.364;9.754;2023-12-04T12:05:37;13.73;;;5.20;;
76863;SDS011;65834;52.364;9.754;2023-12-04T12:08:09;13.85;;;4.47;;
76863;SDS011;65834;52.364;9.754;2023-12-04T12:10:38;14.23;;;5.43;;
76863;SDS011;65834;52.364;9.754;2023-12-04T12:13:08;13.40;;;4.63;;
76863;SDS011;65834;52.364;9.754;2023-12-04T12:15:42;12.10;;;4.93;;
76863;SDS011;65834;52.364;9.754;2023-12-04T12:18:11;14.18;;;5.28;;
76863;SDS011;65834;52.364;9.754;2023-12-04T12:20:41;14.10;;;5.60;;
76863;SDS011;65834;52.364;9.754;2023-12-04T12:23:11;15.40;;;4.73;;
76863;SDS011;65834;52.364;9.754;2023-12-04T12:25:40;13.30;;;5.43;;
76863;SDS011;65834;52.364;9.754;2023-12-04T12:28:10;14.90;;;5.70;;
76863;SDS011;65834;52.364;9.754;2023-12-04T12:30:42;14.17;;;4.73;;
76863;SDS011;65834;52.364;9.754;2023-12-04T12:33:12;13.32;;;5.40;;
76863;SDS011;65834;52.364;9.754;2023-12-04T12:35:42;12.80;;;4.90;;
76863;SDS011;65834;52.364;9.754;2023-12-04T12:38:29;13.63;;;6.03;;
76863;SDS011;65834;52.364;9.754;2023-12-04T12:41:01;13.80;;;5.28;;
76863;SDS011;65834;52.364;9.754;2023-12-04T12:43:33;13.45;;;4.90;;
76863;SDS011;65834;52.364;9.754;2023-12-04T12:46:07;14.73;;;5.23;;
76863;SDS011;65834;52.364;9.754;2023-12-04T12:51:07;12.93;;;5.10;;
76863;SDS011;65834;52.364;9.754;2023-12-04T12:53:37;14.17;;;4.67;;
76863;SDS011;65834;52.364;9.754;2023-12-04T12:56:11;12.10;;;5.33;;
76863;SDS011;65834;52.364;9.754;2023-12-04T12:58:41;14.93;;;5.90;;
76863;SDS011;65834;52.364;9.754;2023-12-04T13:01:13;14.17;;;5.90;;
76863;SDS011;65834;52.364;9.754;2023-12-04T13:03:45;14.18;;;5.20;;
76863;SDS011;65834;52.364;9.754;2023-12-04T13:06:15;13.45;;;4.65;;
76863;SDS011;65834;52.364;9.754;2023-12-04T13:08:45;13.63;;;5.33;;
76863;SDS011;65834;52.364;9.754;2023-12-04T13:11:14;15.67;;;5.43;;
76863;SDS011;65834;52.364;9.754;2023-12-04T13:13:45;12.77;;;4.80;;
76863;SDS011;65834;52.364;9.754;2023-12-04T13:16:17;12.87;;;4.77;;
76863;SDS011;65834;52.364;9.754;2023-12-04T13:18:47;13.13;;;4.43;;
76863;SDS011;65834;52.364;9.754;2023-12-04T13:21:16;13.00;;;4.70;;
76863;SDS011;65834;52.364;9.754;2023-12-04T13:23:47;13.87;;;5.07;;
76863;SDS011;65834;52.364;9.754;2023-12-04T13:26:16;11.87;;;4.80;;
76863;SDS011;65834;52.364;9.754;2023-12-04T13:28:46;13.03;;;4.67;;
76863;SDS011;65834;52.364;9.754;2023-12-04T13:31:19;11.90;;;4.43;;
76863;SDS011;65834;52.364;9.754;2023-12-04T13:33:51;13.57;;;4.37;;
76863;SDS011;65834;52.364;9.754;2023-12-04T13:36:21;12.13;;;4.73;;
76863;SDS011;65834;52.364;9.754;2023-12-04T13:38:51;13.53;;;5.07;;
76863;SDS011;65834;52.364;9.754;2023-12-04T13:41:22;11.77;;;4.10;;
76863;SDS011;65834;52.364;9.754;2023-12-04T13:44:04;13.52;;;4.35;;
76863;SDS011;65834;52.364;9.754;2023-12-04T13:46:36;13.73;;;5.50;;
76863;SDS011;65834;52.364;9.754;2023-12-04T13:49:06;13.57;;;4.65;;
76863;SDS011;65834;52.364;9.754;2023-12-04T13:51:36;14.37;;;5.63;;
76863;SDS011;65834;52.364;9.754;2023-12-04T13:54:07;15.20;;;5.60;;
76863;SDS011;65834;52.364;9.754;2023-12-04T13:56:47;14.47;;;4.50;;
76863;SDS011;65834;52.364;9.754;2023-12-04T13:59:27;11.87;;;4.23;;
76863;SDS011;65834;52.364;9.754;2023-12-04T14:02:01;12.03;;;4.07;;
76863;SDS011;65834;52.364;9.754;2023-12-04T14:04:37;12.73;;;3.93;;
76863;SDS011;65834;52.364;9.754;2023-12-04T14:07:07;12.47;;;4.07;;
76863;SDS011;65834;52.364;9.754;2023-12-04T14:09:39;14.73;;;4.35;;
76863;SDS011;65834;52.364;9.754;2023-12-04T14:12:09;13.23;;;4.50;;
76863;SDS011;65834;52.364;9.754;2023-12-04T14:14:38;10.67;;;4.07;;
76863;SDS011;65834;52.364;9.754;2023-12-04T14:17:11;11.93;;;3.67;;
76863;SDS011;65834;52.364;9.754;2023-12-04T14:19:40;12.60;;;4.60;;
76863;SDS011;65834;52.364;9.754;2023-12-04T14:22:10;11.83;;;4.07;;
76863;SDS011;65834;52.364;9.754;2023-12-04T14:24:40;10.97;;;4.00;;
76863;SDS011;65834;52.364;9.754;2023-12-04T14:27:09;11.63;;;4.00;;
76863;SDS011;65834;52.364;9.754;2023-12-04T14:29:39;11.77;;;3.87;;
76863;SDS011;65834;52.364;9.754;2023-12-04T14:32:11;11.13;;;4.07;;
76863;SDS011;65834;52.364;9.754;2023-12-04T14:34:45;15.50;;;4.40;;
76863;SDS011;65834;52.364;9.754;2023-12-04T14:37:14;10.10;;;3.83;;
76863;SDS011;65834;52.364;9.754;2023-12-04T14:39:44;10.60;;;4.20;;
76863;SDS011;65834;52.364;9.754;2023-12-04T14:42:14;11.70;;;4.27;;
76863;SDS011;65834;52.364;9.754;2023-12-04T14:44:44;9.93;;;3.70;;
76863;SDS011;65834;52.364;9.754;2023-12-04T14:47:19;13.20;;;4.15;;
76863;SDS011;65834;52.364;9.754;2023-12-04T14:49:48;13.30;;;4.35;;
76863;SDS011;65834;52.364;9.754;2023-12-04T14:52:21;9.47;;;3.20;;
76863;SDS011;65834;52.364;9.754;2023-12-04T14:54:55;10.33;;;3.73;;
76863;SDS011;65834;52.364;9.754;2023-12-04T14:57:52;11.63;;;4.30;;
76863;SDS011;65834;52.364;9.754;2023-12-04T15:00:43;10.63;;;3.70;;
76863;SDS011;65834;52.364;9.754;2023-12-04T15:03:40;12.07;;;3.90;;
76863;SDS011;65834;52.364;9.754;2023-12-04T15:06:49;9.43;;;3.67;;
76863;SDS011;65834;52.364;9.754;2023-12-04T15:09:54;11.37;;;3.80;;
76863;SDS011;65834;52.364;9.754;2023-12-04T15:12:36;10.32;;;3.47;;
76863;SDS011;65834;52.364;9.754;2023-12-04T15:15:29;10.98;;;4.10;;
76863;SDS011;65834;52.364;9.754;2023-12-04T15:18:07;10.97;;;3.70;;